Endicott, Virginia
Current Conditions -  °F | °C
As of 11:15 PM on Wednesday 28 Jan 2015 (Local Time) from KMTV Reporting Station
Clear Clear  
Wind Chill: 22°   Ceiling: Unl
Heat Index: 22°   Visibility: 10mi
Dew Point: 15°   Wind: 0mph
Humidity: 77%   Direction: NA
Pressure: 30.35"   Gusts: NA
Location:  36.9002°N, 80.0779°W
Report Text: KMTV 290415Z AUTO 00000KT 10SM CLR M06/M09 A3035 RMK AO2 T10581092
Loading
Personal Weather Stations






























Interactive Weather Map New forecast layout! Learn more

10-Day Weather Forecast

Advertisements
Track Severe Weather on mobile